createdAt,value
2022-11-13T00:01:18.914Z,0.17
2022-11-13T00:04:17.092Z,0.00
2022-11-13T00:07:16.000Z,0.17
2022-11-13T00:10:14.450Z,0.43
2022-11-13T00:13:13.287Z,0.05
2022-11-13T00:16:14.529Z,0.93
2022-11-13T00:19:14.030Z,0.52
2022-11-13T00:22:12.303Z,0.17
2022-11-13T00:25:11.229Z,0.63
2022-11-13T00:28:09.410Z,1.58
2022-11-13T00:31:09.847Z,0.30
2022-11-13T00:34:41.124Z,0.05
2022-11-13T00:37:26.780Z,0.63
2022-11-13T00:40:25.258Z,0.47
2022-11-13T00:43:24.014Z,0.30
2022-11-13T00:46:22.356Z,0.10
2022-11-13T00:49:21.271Z,0.32
2022-11-13T00:52:19.440Z,0.35
2022-11-13T00:55:18.519Z,0.20
2022-11-13T00:58:17.070Z,0.20
2022-11-13T01:01:19.559Z,1.23
2022-11-13T01:04:17.862Z,0.43
2022-11-13T01:07:16.701Z,0.20
2022-11-13T01:10:15.155Z,0.10
2022-11-13T01:13:14.824Z,0.32
2022-11-13T01:16:14.853Z,0.32
2022-11-13T01:19:13.707Z,0.63
2022-11-13T01:22:11.913Z,0.10
2022-11-13T01:25:10.924Z,0.73
2022-11-13T01:28:09.078Z,1.85
2022-11-13T01:31:09.915Z,0.10
2022-11-13T01:34:08.101Z,0.32
2022-11-13T01:37:06.923Z,0.20
2022-11-13T01:40:05.667Z,0.28
2022-11-13T01:43:31.339Z,0.00
2022-11-13T01:46:46.064Z,0.32
2022-11-13T01:49:46.662Z,0.20
2022-11-13T01:52:45.168Z,0.22
2022-11-13T01:55:44.494Z,0.10
2022-11-13T01:58:47.259Z,0.32
2022-11-13T02:01:46.638Z,0.20
2022-11-13T02:04:45.530Z,0.30
2022-11-13T02:07:44.254Z,1.58
2022-11-13T02:10:42.767Z,0.30
2022-11-13T02:13:41.879Z,0.50
2022-11-13T02:16:42.384Z,0.10
2022-11-13T02:19:47.725Z,0.88
2022-11-13T02:23:13.624Z,0.20
2022-11-13T02:26:13.822Z,0.73
2022-11-13T02:29:12.052Z,3.42
2022-11-13T02:32:10.811Z,2.15
2022-11-13T02:35:09.423Z,0.65
2022-11-13T02:38:08.159Z,1.33
2022-11-13T02:41:06.600Z,0.57
2022-11-13T02:44:06.808Z,0.50
2022-11-13T02:47:04.986Z,0.22
2022-11-13T02:50:04.364Z,4.60
2022-11-13T02:53:03.659Z,2.95
2022-11-13T02:56:02.495Z,0.68
2022-11-13T02:59:00.757Z,0.35
2022-11-13T03:01:59.896Z,0.75
2022-11-13T03:05:12.113Z,3.20
2022-11-13T03:08:11.443Z,0.80
2022-11-13T03:11:10.941Z,1.10
2022-11-13T03:14:09.784Z,3.03
2022-11-13T03:17:08.195Z,2.80
2022-11-13T03:20:07.179Z,0.55
2022-11-13T03:23:06.063Z,4.18
2022-11-13T03:26:07.927Z,0.90
2022-11-13T03:29:06.156Z,5.85
2022-11-13T03:32:05.230Z,0.60
2022-11-13T03:35:03.526Z,4.32
2022-11-13T03:38:02.309Z,2.72
2022-11-13T03:41:00.523Z,1.10
2022-11-13T03:43:59.212Z,0.65
2022-11-13T03:46:57.463Z,3.30
2022-11-13T03:49:56.457Z,1.00
2022-11-13T03:52:54.783Z,0.47
2022-11-13T03:55:53.909Z,0.35
2022-11-13T03:58:52.236Z,1.55
2022-11-13T04:01:50.992Z,0.55
2022-11-13T04:04:49.339Z,0.75
2022-11-13T04:07:48.190Z,0.55
2022-11-13T04:10:46.949Z,0.80
2022-11-13T04:13:46.017Z,0.43
2022-11-13T04:16:44.461Z,3.17
2022-11-13T04:19:43.379Z,1.50
2022-11-13T04:22:41.572Z,0.55
2022-11-13T04:25:40.510Z,1.17
2022-11-13T04:28:39.066Z,0.70
2022-11-13T04:31:37.805Z,0.52
2022-11-13T04:34:36.152Z,1.27
2022-11-13T04:37:35.246Z,0.65
2022-11-13T04:40:33.734Z,1.30
2022-11-13T04:43:32.798Z,0.88
2022-11-13T04:46:30.925Z,3.60
2022-11-13T04:49:29.785Z,0.55
2022-11-13T04:52:28.985Z,3.05
2022-11-13T04:55:27.733Z,3.25
2022-11-13T04:58:26.134Z,2.05
2022-11-13T05:01:25.130Z,2.80
2022-11-13T05:04:23.967Z,2.45
2022-11-13T05:07:22.736Z,1.05
2022-11-13T05:10:21.171Z,2.22
2022-11-13T05:13:20.188Z,0.95
2022-11-13T05:16:18.527Z,2.75
2022-11-13T05:19:18.183Z,1.88
2022-11-13T05:22:19.003Z,3.75
2022-11-13T05:25:17.951Z,4.55
2022-11-13T05:28:40.494Z,3.33
2022-11-13T05:31:45.713Z,5.38
2022-11-13T05:34:44.026Z,2.90
2022-11-13T05:37:43.336Z,3.22
2022-11-13T05:40:41.780Z,6.35
2022-11-13T05:43:41.754Z,4.07
2022-11-13T05:46:40.029Z,5.32
2022-11-13T05:49:39.001Z,5.85
2022-11-13T05:52:37.325Z,7.50
2022-11-13T05:55:36.003Z,7.45
2022-11-13T05:58:35.326Z,5.72
2022-11-13T06:01:37.084Z,6.93
2022-11-13T06:04:35.459Z,6.60
2022-11-13T06:07:34.571Z,12.10
2022-11-13T06:10:32.848Z,6.25
2022-11-13T06:13:31.962Z,6.65
2022-11-13T06:16:35.282Z,8.57
2022-11-13T06:19:33.956Z,6.65
2022-11-13T06:22:32.169Z,6.07
2022-11-13T06:25:31.581Z,7.78
2022-11-13T06:28:30.119Z,8.40
2022-11-13T06:31:32.179Z,6.50
2022-11-13T06:34:30.369Z,7.60
2022-11-13T06:37:32.549Z,6.45
2022-11-13T06:40:32.822Z,6.75
2022-11-13T06:43:32.538Z,6.50
2022-11-13T06:46:31.108Z,6.25
2022-11-13T06:49:29.932Z,6.82
2022-11-13T06:52:28.536Z,5.72
2022-11-13T06:55:27.376Z,6.28
2022-11-13T06:58:26.068Z,7.82
2022-11-13T07:01:27.389Z,6.63
2022-11-13T07:04:25.673Z,7.18
2022-11-13T07:07:24.461Z,5.80
2022-11-13T07:10:22.820Z,7.32
2022-11-13T07:13:22.385Z,5.78
2022-11-13T07:16:21.352Z,6.53
2022-11-13T07:19:20.583Z,6.03
2022-11-13T07:22:18.827Z,5.63
2022-11-13T07:25:17.721Z,7.00
2022-11-13T07:28:16.124Z,6.72
2022-11-13T07:31:16.434Z,13.30
2022-11-13T07:34:15.246Z,15.50
2022-11-13T07:37:14.238Z,7.07
2022-11-13T07:40:13.346Z,14.07
2022-11-13T07:43:12.138Z,6.57
2022-11-13T07:46:11.584Z,10.38
2022-11-13T07:49:10.544Z,13.25
2022-11-13T07:52:09.299Z,8.52
2022-11-13T07:55:08.834Z,6.47
2022-11-13T07:58:07.334Z,7.60
2022-11-13T08:01:07.372Z,9.88
2022-11-13T08:04:05.826Z,7.90
2022-11-13T08:07:04.667Z,7.90
2022-11-13T08:10:02.884Z,8.52
2022-11-13T08:13:04.279Z,6.75
2022-11-13T08:16:03.744Z,10.20
2022-11-13T08:19:03.331Z,9.02
2022-11-13T08:22:01.748Z,6.47
2022-11-13T08:25:00.586Z,7.75
2022-11-13T08:27:59.334Z,6.43
2022-11-13T08:30:58.183Z,8.10
2022-11-13T08:33:56.508Z,9.38
2022-11-13T08:36:56.247Z,8.98
2022-11-13T08:39:54.439Z,7.90
2022-11-13T08:42:53.322Z,7.43
2022-11-13T08:45:51.827Z,8.70
2022-11-13T08:48:50.660Z,10.52
2022-11-13T08:51:49.059Z,6.97
2022-11-13T08:54:48.364Z,7.22
2022-11-13T08:57:46.690Z,8.82
2022-11-13T09:00:45.663Z,11.13
2022-11-13T09:03:43.956Z,9.05
2022-11-13T09:06:42.762Z,8.73
2022-11-13T09:09:41.018Z,7.55
2022-11-13T09:12:42.694Z,8.70
2022-11-13T09:15:41.191Z,7.63
2022-11-13T09:18:40.140Z,7.90
2022-11-13T09:21:38.651Z,8.20
2022-11-13T09:24:37.987Z,11.48
2022-11-13T09:27:36.232Z,8.80
2022-11-13T09:30:35.334Z,8.05
2022-11-13T09:33:34.235Z,11.18
2022-11-13T09:36:33.004Z,11.93
2022-11-13T09:39:33.649Z,14.00
2022-11-13T09:42:33.549Z,10.10
2022-11-13T09:45:33.455Z,11.00
2022-11-13T09:48:41.114Z,8.07
2022-11-13T09:51:39.970Z,7.55
2022-11-13T09:54:39.521Z,8.60
2022-11-13T09:57:53.581Z,7.03
2022-11-13T10:00:52.533Z,9.38
2022-11-13T10:04:03.269Z,9.85
2022-11-13T10:07:31.897Z,9.93
2022-11-13T10:10:55.207Z,7.78
2022-11-13T10:14:02.244Z,9.68
2022-11-13T10:17:12.430Z,6.55
2022-11-13T10:20:20.640Z,4.72
2022-11-13T10:23:23.501Z,4.47
2022-11-13T10:26:25.569Z,3.25
2022-11-13T10:29:24.246Z,6.80
2022-11-13T10:32:27.396Z,4.93
2022-11-13T10:35:56.150Z,4.35
2022-11-13T10:39:10.441Z,6.40
2022-11-13T10:42:23.503Z,4.03
2022-11-13T10:45:23.779Z,4.38
2022-11-13T10:48:26.509Z,5.47
2022-11-13T10:51:29.995Z,4.30
2022-11-13T10:54:31.151Z,3.15
2022-11-13T10:57:35.035Z,4.18
2022-11-13T11:00:36.622Z,6.35
2022-11-13T11:03:35.457Z,5.85
2022-11-13T11:07:12.767Z,5.40
2022-11-13T11:09:54.804Z,4.82
2022-11-13T11:12:55.838Z,5.10
2022-11-13T11:16:00.566Z,3.80
2022-11-13T11:19:03.220Z,4.18
2022-11-13T11:22:23.389Z,3.67
2022-11-13T11:25:39.722Z,5.10
2022-11-13T11:29:13.624Z,4.82
2022-11-13T11:32:33.238Z,3.22
2022-11-13T11:35:42.549Z,4.13
2022-11-13T11:38:58.093Z,3.80
2022-11-13T11:42:07.353Z,4.00
2022-11-13T11:45:25.089Z,4.93
2022-11-13T11:48:31.905Z,3.83
2022-11-13T11:51:35.798Z,4.60
2022-11-13T11:54:44.342Z,4.00
2022-11-13T11:57:57.522Z,5.03
2022-11-13T12:01:05.263Z,4.55
2022-11-13T12:04:32.238Z,5.38
2022-11-13T12:08:06.053Z,5.45
2022-11-13T12:11:16.130Z,4.65
2022-11-13T12:14:37.857Z,6.22
2022-11-13T12:17:49.109Z,6.13
2022-11-13T12:21:05.876Z,7.13
2022-11-13T12:24:22.592Z,7.20
2022-11-13T12:30:42.416Z,8.68
2022-11-13T12:34:01.058Z,6.65
2022-11-13T12:37:01.977Z,7.35
2022-11-13T12:40:07.876Z,11.65
2022-11-13T12:43:28.248Z,7.82
2022-11-13T12:46:38.081Z,7.70
2022-11-13T12:49:37.969Z,5.72
2022-11-13T12:52:36.873Z,8.23
2022-11-13T12:55:37.324Z,6.10
2022-11-13T12:58:36.256Z,9.95
2022-11-13T13:01:43.061Z,6.82
2022-11-13T13:08:21.181Z,10.73
2022-11-13T13:11:44.051Z,7.38
2022-11-13T13:15:04.747Z,13.35
2022-11-13T13:18:11.871Z,7.70
2022-11-13T13:21:13.181Z,8.30
2022-11-13T13:24:37.122Z,7.13
2022-11-13T13:27:39.135Z,7.63
2022-11-13T13:30:53.737Z,12.60
2022-11-13T13:34:17.066Z,8.23
2022-11-13T13:37:38.241Z,8.43
2022-11-13T13:40:46.652Z,7.55
2022-11-13T13:44:16.144Z,8.70
2022-11-13T13:47:32.089Z,10.52
2022-11-13T13:50:34.691Z,15.80
2022-11-13T13:53:36.454Z,14.35
2022-11-13T13:56:43.670Z,9.68
2022-11-13T13:59:46.639Z,9.82
2022-11-13T14:02:49.569Z,13.50
2022-11-13T14:05:47.966Z,8.23
2022-11-13T14:08:48.971Z,8.13
2022-11-13T14:11:48.320Z,8.02
2022-11-13T14:14:47.514Z,9.70
2022-11-13T14:17:45.671Z,9.77
2022-11-13T14:20:50.680Z,8.75
2022-11-13T14:23:51.813Z,9.55
2022-11-13T14:26:53.684Z,8.32
2022-11-13T14:29:58.814Z,8.40
2022-11-13T14:32:59.459Z,7.82
2022-11-13T14:35:58.647Z,9.05
2022-11-13T14:38:58.252Z,10.00
2022-11-13T14:42:00.691Z,9.13
2022-11-13T14:45:20.833Z,9.90
2022-11-13T14:48:21.734Z,7.88
2022-11-13T14:51:27.350Z,8.07
2022-11-13T14:55:13.146Z,7.88
2022-11-13T14:58:00.327Z,7.00
2022-11-13T15:01:12.082Z,7.65
2022-11-13T15:04:10.911Z,7.15
2022-11-13T15:07:29.763Z,8.52
2022-11-13T15:10:30.398Z,9.20
2022-11-13T15:13:28.763Z,9.35
2022-11-13T15:16:31.280Z,7.40
2022-11-13T15:19:35.927Z,7.88
2022-11-13T15:22:35.548Z,7.95
2022-11-13T15:25:34.266Z,6.82
2022-11-13T15:28:32.951Z,10.30
2022-11-13T15:31:34.824Z,7.18
2022-11-13T15:34:33.573Z,10.27
2022-11-13T15:37:31.862Z,9.10
2022-11-13T15:40:30.614Z,6.32
2022-11-13T15:43:29.081Z,6.55
2022-11-13T15:46:28.368Z,6.55
2022-11-13T15:49:28.215Z,9.20
2022-11-13T15:52:29.403Z,7.10
2022-11-13T15:55:31.569Z,6.63
2022-11-13T15:58:33.464Z,6.15
2022-11-13T16:01:32.953Z,7.65
2022-11-13T16:04:54.574Z,6.18
2022-11-13T16:07:49.934Z,6.70
2022-11-13T16:10:48.853Z,6.25
2022-11-13T16:13:47.758Z,5.72
2022-11-13T16:16:47.063Z,5.97
2022-11-13T16:19:45.222Z,5.80
2022-11-13T16:22:44.708Z,6.20
2022-11-13T16:25:43.672Z,5.80
2022-11-13T16:32:00.519Z,5.50
2022-11-13T16:34:59.524Z,5.75
2022-11-13T16:37:57.953Z,5.57
2022-11-13T16:40:56.768Z,5.20
2022-11-13T16:43:54.923Z,5.88
2022-11-13T16:46:53.866Z,4.57
2022-11-13T16:49:52.558Z,5.38
2022-11-13T16:52:51.558Z,6.85
2022-11-13T16:55:49.752Z,5.43
2022-11-13T16:58:48.449Z,4.07
2022-11-13T17:01:46.722Z,3.80
2022-11-13T17:04:45.915Z,4.85
2022-11-13T17:07:44.097Z,6.57
2022-11-13T17:10:42.856Z,6.70
2022-11-13T17:13:41.082Z,5.82
2022-11-13T17:16:39.875Z,4.50
2022-11-13T17:19:44.409Z,6.53
2022-11-13T17:22:48.768Z,5.13
2022-11-13T17:25:48.490Z,5.53
2022-11-13T17:28:47.247Z,5.20
2022-11-13T17:31:45.508Z,7.07
2022-11-13T17:34:44.474Z,6.10
2022-11-13T17:37:42.880Z,3.55
2022-11-13T17:40:41.640Z,5.30
2022-11-13T17:43:41.569Z,4.32
2022-11-13T17:46:40.411Z,5.20
2022-11-13T17:49:38.607Z,4.68
2022-11-13T17:52:37.342Z,3.53
2022-11-13T17:55:35.490Z,3.80
2022-11-13T17:58:40.265Z,3.83
2022-11-13T18:01:38.562Z,6.55
2022-11-13T18:04:37.368Z,3.90
2022-11-13T18:07:35.533Z,3.75
2022-11-13T18:10:35.053Z,3.78
2022-11-13T18:13:33.604Z,3.10
2022-11-13T18:16:35.405Z,3.10
2022-11-13T18:19:33.728Z,3.55
2022-11-13T18:22:32.497Z,2.97
2022-11-13T18:25:34.232Z,4.53
2022-11-13T18:28:35.678Z,3.63
2022-11-13T18:31:33.873Z,3.30
2022-11-13T18:34:33.191Z,2.40
2022-11-13T18:37:31.722Z,3.88
2022-11-13T18:40:30.525Z,3.03
2022-11-13T18:43:29.177Z,2.47
2022-11-13T18:46:28.986Z,2.55
2022-11-13T18:49:27.185Z,2.72
2022-11-13T18:52:25.962Z,3.30
2022-11-13T18:55:24.471Z,3.10
2022-11-13T18:58:23.310Z,1.85
2022-11-13T19:01:25.750Z,3.33
2022-11-13T19:04:24.791Z,3.25
2022-11-13T19:07:23.152Z,5.50
2022-11-13T19:10:21.822Z,1.88
2022-11-13T19:13:20.234Z,2.47
2022-11-13T19:16:22.731Z,1.95
2022-11-13T19:19:24.015Z,3.83
2022-11-13T19:22:22.990Z,2.50
2022-11-13T19:25:21.204Z,2.38
2022-11-13T19:28:19.957Z,2.55
2022-11-13T19:31:20.719Z,6.95
2022-11-13T19:34:19.387Z,1.63
2022-11-13T19:37:19.267Z,1.70
2022-11-13T19:40:18.348Z,3.25
2022-11-13T19:43:16.680Z,1.65
2022-11-13T19:46:17.010Z,3.80
2022-11-13T19:49:15.207Z,3.53
2022-11-13T19:52:14.086Z,1.80
2022-11-13T19:55:12.362Z,3.65
2022-11-13T19:58:11.229Z,1.45
2022-11-13T20:01:14.683Z,1.80
2022-11-13T20:04:14.299Z,2.53
2022-11-13T20:07:12.626Z,2.97
2022-11-13T20:10:11.677Z,1.38
2022-11-13T20:13:10.104Z,1.52
2022-11-13T20:16:10.751Z,1.90
2022-11-13T20:19:09.042Z,1.33
2022-11-13T20:22:07.723Z,1.70
2022-11-13T20:25:06.195Z,1.33
2022-11-13T20:28:05.107Z,3.58
2022-11-13T20:31:06.332Z,1.40
2022-11-13T20:34:05.186Z,0.73
2022-11-13T20:37:03.340Z,1.98
2022-11-13T20:40:02.530Z,4.88
2022-11-13T20:43:00.780Z,3.22
2022-11-13T20:46:15.584Z,2.35
2022-11-13T20:49:13.749Z,2.42
2022-11-13T20:52:12.904Z,0.85
2022-11-13T20:55:11.104Z,2.45
2022-11-13T20:58:10.138Z,5.10
2022-11-13T21:01:10.860Z,4.53
2022-11-13T21:04:09.939Z,1.48
2022-11-13T21:07:08.218Z,1.77
2022-11-13T21:10:07.438Z,1.17
2022-11-13T21:13:05.623Z,1.05
2022-11-13T21:16:07.065Z,3.25
2022-11-13T21:19:05.831Z,1.50
2022-11-13T21:22:04.625Z,2.40
2022-11-13T21:25:02.793Z,0.45
2022-11-13T21:28:01.555Z,0.98
2022-11-13T21:31:04.932Z,1.55
2022-11-13T21:34:04.545Z,0.52
2022-11-13T21:37:02.681Z,0.50
2022-11-13T21:40:01.661Z,0.73
2022-11-13T21:42:59.967Z,1.50
2022-11-13T21:46:06.785Z,0.50
2022-11-13T21:49:08.349Z,1.77
2022-11-13T21:52:07.405Z,2.67
2022-11-13T21:55:06.000Z,1.13
2022-11-13T21:58:04.695Z,0.70
2022-11-13T22:01:03.444Z,0.65
2022-11-13T22:04:02.429Z,0.60
2022-11-13T22:07:00.718Z,1.27
2022-11-13T22:10:01.803Z,0.43
2022-11-13T22:13:03.992Z,1.40
2022-11-13T22:16:05.928Z,0.40
2022-11-13T22:19:06.780Z,0.63
2022-11-13T22:22:05.458Z,0.60
2022-11-13T22:25:03.681Z,0.50
2022-11-13T22:28:02.575Z,1.33
2022-11-13T22:31:01.751Z,1.27
2022-11-13T22:34:01.375Z,0.60
2022-11-13T22:37:00.189Z,0.77
2022-11-13T22:39:58.919Z,2.25
2022-11-13T22:42:57.075Z,1.52
2022-11-13T22:45:56.017Z,1.13
2022-11-13T22:48:56.130Z,2.50
2022-11-13T22:51:54.857Z,0.60
2022-11-13T22:54:53.393Z,0.43
2022-11-13T22:57:52.590Z,0.85
2022-11-13T23:00:50.898Z,0.73
2022-11-13T23:03:51.025Z,0.30
2022-11-13T23:06:49.348Z,0.47
2022-11-13T23:09:48.160Z,0.22
2022-11-13T23:12:46.427Z,1.70
2022-11-13T23:15:45.148Z,4.30
2022-11-13T23:18:46.049Z,2.58
2022-11-13T23:21:47.290Z,0.40
2022-11-13T23:24:45.561Z,0.30
2022-11-13T23:27:44.525Z,0.20
2022-11-13T23:30:42.773Z,0.63
2022-11-13T23:33:41.544Z,5.88
2022-11-13T23:36:39.899Z,4.78
2022-11-13T23:39:38.513Z,0.95
2022-11-13T23:42:54.258Z,4.43
2022-11-13T23:45:54.187Z,4.68
2022-11-13T23:48:52.688Z,1.27
2022-11-13T23:51:51.373Z,0.73
2022-11-13T23:54:49.533Z,0.40
2022-11-13T23:57:48.435Z,0.85
